sensor_id;sensor_type;location;lat;lon;timestamp;P1;durP1;ratioP1;P2;durP2;ratioP2
84231;SDS011;74368;48.022;13.830;2024-02-04T00:00:42;9.52;;;5.63;;
84231;SDS011;74368;48.022;13.830;2024-02-04T00:03:07;10.52;;;5.55;;
84231;SDS011;74368;48.022;13.830;2024-02-04T00:05:32;9.98;;;6.22;;
84231;SDS011;74368;48.022;13.830;2024-02-04T00:07:58;9.02;;;6.43;;
84231;SDS011;74368;48.022;13.830;2024-02-04T00:10:23;9.65;;;6.13;;
84231;SDS011;74368;48.022;13.830;2024-02-04T00:12:48;9.63;;;6.22;;
84231;SDS011;74368;48.022;13.830;2024-02-04T00:15:14;10.68;;;6.93;;
84231;SDS011;74368;48.022;13.830;2024-02-04T00:17:39;8.93;;;5.85;;
84231;SDS011;74368;48.022;13.830;2024-02-04T00:20:04;10.38;;;7.07;;
84231;SDS011;74368;48.022;13.830;2024-02-04T00:22:31;10.57;;;6.22;;
84231;SDS011;74368;48.022;13.830;2024-02-04T00:24:58;9.85;;;6.28;;
84231;SDS011;74368;48.022;13.830;2024-02-04T00:27:29;11.98;;;6.65;;
84231;SDS011;74368;48.022;13.830;2024-02-04T00:29:54;11.68;;;6.93;;
84231;SDS011;74368;48.022;13.830;2024-02-04T00:32:20;9.38;;;6.53;;
84231;SDS011;74368;48.022;13.830;2024-02-04T00:34:45;9.73;;;6.47;;
84231;SDS011;74368;48.022;13.830;2024-02-04T00:37:10;10.40;;;6.43;;
84231;SDS011;74368;48.022;13.830;2024-02-04T00:39:35;9.50;;;6.68;;
84231;SDS011;74368;48.022;13.830;2024-02-04T00:42:01;9.20;;;5.78;;
84231;SDS011;74368;48.022;13.830;2024-02-04T00:44:26;9.77;;;6.05;;
84231;SDS011;74368;48.022;13.830;2024-02-04T00:46:51;8.15;;;5.78;;
84231;SDS011;74368;48.022;13.830;2024-02-04T00:49:17;10.25;;;6.10;;
84231;SDS011;74368;48.022;13.830;2024-02-04T00:51:42;8.85;;;6.25;;
84231;SDS011;74368;48.022;13.830;2024-02-04T00:54:07;9.85;;;6.40;;
84231;SDS011;74368;48.022;13.830;2024-02-04T00:56:32;9.93;;;6.85;;
84231;SDS011;74368;48.022;13.830;2024-02-04T00:58:58;11.38;;;6.75;;
84231;SDS011;74368;48.022;13.830;2024-02-04T01:01:23;10.68;;;6.50;;
84231;SDS011;74368;48.022;13.830;2024-02-04T01:03:48;11.68;;;6.40;;
84231;SDS011;74368;48.022;13.830;2024-02-04T01:06:14;9.25;;;6.53;;
84231;SDS011;74368;48.022;13.830;2024-02-04T01:08:39;10.63;;;6.57;;
84231;SDS011;74368;48.022;13.830;2024-02-04T01:11:05;10.50;;;6.80;;
84231;SDS011;74368;48.022;13.830;2024-02-04T01:13:30;10.13;;;6.10;;
84231;SDS011;74368;48.022;13.830;2024-02-04T01:15:56;10.23;;;6.70;;
84231;SDS011;74368;48.022;13.830;2024-02-04T01:18:21;8.80;;;6.07;;
84231;SDS011;74368;48.022;13.830;2024-02-04T01:20:46;8.32;;;5.50;;
84231;SDS011;74368;48.022;13.830;2024-02-04T01:23:12;9.55;;;5.95;;
84231;SDS011;74368;48.022;13.830;2024-02-04T01:25:38;9.65;;;6.20;;
84231;SDS011;74368;48.022;13.830;2024-02-04T01:28:03;8.52;;;5.75;;
84231;SDS011;74368;48.022;13.830;2024-02-04T01:30:29;8.55;;;5.78;;
84231;SDS011;74368;48.022;13.830;2024-02-04T01:32:56;7.97;;;5.72;;
84231;SDS011;74368;48.022;13.830;2024-02-04T01:35:21;9.60;;;5.60;;
84231;SDS011;74368;48.022;13.830;2024-02-04T01:37:46;8.57;;;5.22;;
84231;SDS011;74368;48.022;13.830;2024-02-04T01:40:13;7.80;;;5.25;;
84231;SDS011;74368;48.022;13.830;2024-02-04T01:42:39;7.55;;;5.50;;
84231;SDS011;74368;48.022;13.830;2024-02-04T01:45:04;9.48;;;5.53;;
84231;SDS011;74368;48.022;13.830;2024-02-04T01:47:30;9.07;;;5.40;;
84231;SDS011;74368;48.022;13.830;2024-02-04T01:49:56;8.32;;;5.50;;
84231;SDS011;74368;48.022;13.830;2024-02-04T01:52:21;8.82;;;5.65;;
84231;SDS011;74368;48.022;13.830;2024-02-04T01:54:47;9.90;;;5.75;;
84231;SDS011;74368;48.022;13.830;2024-02-04T01:57:12;8.20;;;5.57;;
84231;SDS011;74368;48.022;13.830;2024-02-04T01:59:39;9.95;;;5.75;;
84231;SDS011;74368;48.022;13.830;2024-02-04T02:02:05;8.60;;;5.50;;
84231;SDS011;74368;48.022;13.830;2024-02-04T02:04:31;10.02;;;5.72;;
84231;SDS011;74368;48.022;13.830;2024-02-04T02:06:56;9.38;;;5.47;;
84231;SDS011;74368;48.022;13.830;2024-02-04T02:09:21;8.55;;;5.70;;
84231;SDS011;74368;48.022;13.830;2024-02-04T02:11:48;8.02;;;5.50;;
84231;SDS011;74368;48.022;13.830;2024-02-04T02:14:22;9.02;;;5.43;;
84231;SDS011;74368;48.022;13.830;2024-02-04T02:16:51;7.43;;;4.43;;
84231;SDS011;74368;48.022;13.830;2024-02-04T02:24:56;7.43;;;4.82;;
84231;SDS011;74368;48.022;13.830;2024-02-04T02:27:22;7.10;;;4.78;;
84231;SDS011;74368;48.022;13.830;2024-02-04T02:29:47;7.43;;;4.97;;
84231;SDS011;74368;48.022;13.830;2024-02-04T02:32:13;6.80;;;4.70;;
84231;SDS011;74368;48.022;13.830;2024-02-04T02:34:38;8.40;;;5.25;;
84231;SDS011;74368;48.022;13.830;2024-02-04T02:39:42;9.07;;;5.30;;
84231;SDS011;74368;48.022;13.830;2024-02-04T02:42:20;6.78;;;4.80;;
84231;SDS011;74368;48.022;13.830;2024-02-04T02:44:47;7.20;;;4.70;;
84231;SDS011;74368;48.022;13.830;2024-02-04T02:47:13;7.88;;;4.90;;
84231;SDS011;74368;48.022;13.830;2024-02-04T02:49:40;9.27;;;5.88;;
84231;SDS011;74368;48.022;13.830;2024-02-04T02:52:05;8.65;;;5.43;;
84231;SDS011;74368;48.022;13.830;2024-02-04T02:54:31;9.40;;;5.85;;
84231;SDS011;74368;48.022;13.830;2024-02-04T02:56:56;7.50;;;5.38;;
84231;SDS011;74368;48.022;13.830;2024-02-04T02:59:21;8.52;;;5.53;;
84231;SDS011;74368;48.022;13.830;2024-02-04T03:01:46;8.02;;;5.22;;
84231;SDS011;74368;48.022;13.830;2024-02-04T03:04:12;7.78;;;5.20;;
84231;SDS011;74368;48.022;13.830;2024-02-04T03:06:37;13.45;;;5.45;;
84231;SDS011;74368;48.022;13.830;2024-02-04T03:09:02;7.43;;;5.28;;
84231;SDS011;74368;48.022;13.830;2024-02-04T03:11:27;8.75;;;5.30;;
84231;SDS011;74368;48.022;13.830;2024-02-04T03:13:53;7.43;;;5.15;;
84231;SDS011;74368;48.022;13.830;2024-02-04T03:16:18;7.43;;;5.15;;
84231;SDS011;74368;48.022;13.830;2024-02-04T03:18:45;8.93;;;5.60;;
84231;SDS011;74368;48.022;13.830;2024-02-04T03:21:11;7.13;;;5.10;;
84231;SDS011;74368;48.022;13.830;2024-02-04T03:23:41;8.35;;;5.47;;
84231;SDS011;74368;48.022;13.830;2024-02-04T03:26:07;7.88;;;4.97;;
84231;SDS011;74368;48.022;13.830;2024-02-04T03:28:33;8.10;;;5.15;;
84231;SDS011;74368;48.022;13.830;2024-02-04T03:30:58;8.07;;;5.32;;
84231;SDS011;74368;48.022;13.830;2024-02-04T03:33:23;7.22;;;5.20;;
84231;SDS011;74368;48.022;13.830;2024-02-04T03:35:48;8.35;;;4.72;;
84231;SDS011;74368;48.022;13.830;2024-02-04T03:38:14;10.07;;;5.25;;
84231;SDS011;74368;48.022;13.830;2024-02-04T03:40:39;7.38;;;5.32;;
84231;SDS011;74368;48.022;13.830;2024-02-04T03:43:07;10.02;;;5.60;;
84231;SDS011;74368;48.022;13.830;2024-02-04T03:45:36;8.50;;;5.30;;
84231;SDS011;74368;48.022;13.830;2024-02-04T03:48:01;7.40;;;5.40;;
84231;SDS011;74368;48.022;13.830;2024-02-04T03:50:27;9.48;;;5.15;;
84231;SDS011;74368;48.022;13.830;2024-02-04T03:52:52;7.38;;;5.28;;
84231;SDS011;74368;48.022;13.830;2024-02-04T03:55:18;9.52;;;5.38;;
84231;SDS011;74368;48.022;13.830;2024-02-04T03:57:43;7.00;;;4.57;;
84231;SDS011;74368;48.022;13.830;2024-02-04T04:00:09;7.55;;;4.45;;
84231;SDS011;74368;48.022;13.830;2024-02-04T04:02:34;7.72;;;5.30;;
84231;SDS011;74368;48.022;13.830;2024-02-04T04:04:59;10.57;;;4.90;;
84231;SDS011;74368;48.022;13.830;2024-02-04T04:07:25;8.48;;;5.03;;
84231;SDS011;74368;48.022;13.830;2024-02-04T04:09:50;6.38;;;4.45;;
84231;SDS011;74368;48.022;13.830;2024-02-04T04:12:15;6.75;;;4.70;;
84231;SDS011;74368;48.022;13.830;2024-02-04T04:14:40;7.05;;;4.80;;
84231;SDS011;74368;48.022;13.830;2024-02-04T04:17:06;6.30;;;4.35;;
84231;SDS011;74368;48.022;13.830;2024-02-04T04:19:31;7.05;;;4.70;;
84231;SDS011;74368;48.022;13.830;2024-02-04T04:21:58;7.97;;;5.30;;
84231;SDS011;74368;48.022;13.830;2024-02-04T04:24:24;8.25;;;5.07;;
84231;SDS011;74368;48.022;13.830;2024-02-04T04:26:50;11.07;;;5.40;;
84231;SDS011;74368;48.022;13.830;2024-02-04T04:29:15;8.07;;;5.63;;
84231;SDS011;74368;48.022;13.830;2024-02-04T04:31:40;8.23;;;5.25;;
84231;SDS011;74368;48.022;13.830;2024-02-04T04:34:05;9.82;;;5.25;;
84231;SDS011;74368;48.022;13.830;2024-02-04T04:36:31;10.25;;;6.00;;
84231;SDS011;74368;48.022;13.830;2024-02-04T04:38:56;10.77;;;5.28;;
84231;SDS011;74368;48.022;13.830;2024-02-04T04:41:21;7.90;;;5.65;;
84231;SDS011;74368;48.022;13.830;2024-02-04T04:43:47;8.95;;;5.93;;
84231;SDS011;74368;48.022;13.830;2024-02-04T04:46:12;8.88;;;5.20;;
84231;SDS011;74368;48.022;13.830;2024-02-04T04:48:37;7.57;;;5.20;;
84231;SDS011;74368;48.022;13.830;2024-02-04T04:51:02;8.63;;;5.55;;
84231;SDS011;74368;48.022;13.830;2024-02-04T04:53:28;7.47;;;4.95;;
84231;SDS011;74368;48.022;13.830;2024-02-04T04:55:53;10.52;;;5.90;;
84231;SDS011;74368;48.022;13.830;2024-02-04T04:58:18;7.82;;;5.35;;
84231;SDS011;74368;48.022;13.830;2024-02-04T05:00:43;7.40;;;4.90;;
84231;SDS011;74368;48.022;13.830;2024-02-04T05:03:09;8.55;;;5.50;;
84231;SDS011;74368;48.022;13.830;2024-02-04T05:05:34;7.38;;;4.78;;
84231;SDS011;74368;48.022;13.830;2024-02-04T05:07:59;6.63;;;4.72;;
84231;SDS011;74368;48.022;13.830;2024-02-04T05:10:24;8.43;;;5.13;;
84231;SDS011;74368;48.022;13.830;2024-02-04T05:12:50;7.15;;;4.93;;
84231;SDS011;74368;48.022;13.830;2024-02-04T05:15:15;7.53;;;4.80;;
84231;SDS011;74368;48.022;13.830;2024-02-04T05:17:41;8.23;;;4.63;;
84231;SDS011;74368;48.022;13.830;2024-02-04T05:20:06;8.52;;;4.93;;
84231;SDS011;74368;48.022;13.830;2024-02-04T05:22:32;7.25;;;4.85;;
84231;SDS011;74368;48.022;13.830;2024-02-04T05:24:58;8.23;;;5.40;;
84231;SDS011;74368;48.022;13.830;2024-02-04T05:27:23;8.45;;;5.40;;
84231;SDS011;74368;48.022;13.830;2024-02-04T05:29:49;9.45;;;5.13;;
84231;SDS011;74368;48.022;13.830;2024-02-04T05:32:14;8.40;;;5.38;;
84231;SDS011;74368;48.022;13.830;2024-02-04T05:34:39;7.95;;;5.07;;
84231;SDS011;74368;48.022;13.830;2024-02-04T05:37:05;9.82;;;6.28;;
84231;SDS011;74368;48.022;13.830;2024-02-04T05:39:30;10.27;;;5.90;;
84231;SDS011;74368;48.022;13.830;2024-02-04T05:41:55;11.10;;;6.35;;
84231;SDS011;74368;48.022;13.830;2024-02-04T05:44:20;10.85;;;6.32;;
84231;SDS011;74368;48.022;13.830;2024-02-04T05:46:46;8.68;;;5.30;;
84231;SDS011;74368;48.022;13.830;2024-02-04T05:49:11;8.82;;;5.80;;
84231;SDS011;74368;48.022;13.830;2024-02-04T05:51:40;6.82;;;5.20;;
84231;SDS011;74368;48.022;13.830;2024-02-04T05:54:06;10.32;;;5.20;;
84231;SDS011;74368;48.022;13.830;2024-02-04T05:56:31;7.88;;;5.32;;
84231;SDS011;74368;48.022;13.830;2024-02-04T05:58:57;7.63;;;4.82;;
84231;SDS011;74368;48.022;13.830;2024-02-04T06:01:22;7.35;;;4.43;;
84231;SDS011;74368;48.022;13.830;2024-02-04T06:03:47;6.55;;;4.35;;
84231;SDS011;74368;48.022;13.830;2024-02-04T06:06:16;6.05;;;4.38;;
84231;SDS011;74368;48.022;13.830;2024-02-04T06:08:43;6.88;;;4.47;;
84231;SDS011;74368;48.022;13.830;2024-02-04T06:11:11;6.68;;;4.32;;
84231;SDS011;74368;48.022;13.830;2024-02-04T06:13:39;7.57;;;4.65;;
84231;SDS011;74368;48.022;13.830;2024-02-04T06:16:05;8.00;;;4.22;;
84231;SDS011;74368;48.022;13.830;2024-02-04T06:18:30;7.25;;;4.50;;
84231;SDS011;74368;48.022;13.830;2024-02-04T06:20:56;7.20;;;4.38;;
84231;SDS011;74368;48.022;13.830;2024-02-04T06:23:21;5.68;;;3.55;;
84231;SDS011;74368;48.022;13.830;2024-02-04T06:25:46;6.90;;;4.32;;
84231;SDS011;74368;48.022;13.830;2024-02-04T06:28:12;5.40;;;3.50;;
84231;SDS011;74368;48.022;13.830;2024-02-04T06:30:37;7.18;;;3.72;;
84231;SDS011;74368;48.022;13.830;2024-02-04T06:33:02;6.63;;;3.60;;
84231;SDS011;74368;48.022;13.830;2024-02-04T06:35:28;6.93;;;3.83;;
84231;SDS011;74368;48.022;13.830;2024-02-04T06:37:53;6.18;;;3.67;;
84231;SDS011;74368;48.022;13.830;2024-02-04T06:40:19;6.03;;;3.85;;
84231;SDS011;74368;48.022;13.830;2024-02-04T06:42:44;5.18;;;3.72;;
84231;SDS011;74368;48.022;13.830;2024-02-04T06:45:09;6.15;;;4.07;;
84231;SDS011;74368;48.022;13.830;2024-02-04T06:47:35;6.22;;;3.60;;
84231;SDS011;74368;48.022;13.830;2024-02-04T06:50:00;5.88;;;3.67;;
84231;SDS011;74368;48.022;13.830;2024-02-04T06:52:28;5.80;;;4.00;;
84231;SDS011;74368;48.022;13.830;2024-02-04T06:54:53;5.60;;;3.55;;
84231;SDS011;74368;48.022;13.830;2024-02-04T06:57:18;8.68;;;3.83;;
84231;SDS011;74368;48.022;13.830;2024-02-04T06:59:44;5.13;;;3.58;;
84231;SDS011;74368;48.022;13.830;2024-02-04T07:02:09;5.85;;;3.83;;
84231;SDS011;74368;48.022;13.830;2024-02-04T07:04:34;5.72;;;4.03;;
84231;SDS011;74368;48.022;13.830;2024-02-04T07:06:59;5.88;;;3.88;;
84231;SDS011;74368;48.022;13.830;2024-02-04T07:09:25;7.07;;;4.53;;
84231;SDS011;74368;48.022;13.830;2024-02-04T07:11:50;6.40;;;4.03;;
84231;SDS011;74368;48.022;13.830;2024-02-04T07:14:18;6.45;;;4.05;;
84231;SDS011;74368;48.022;13.830;2024-02-04T07:16:43;6.55;;;3.70;;
84231;SDS011;74368;48.022;13.830;2024-02-04T07:19:09;6.82;;;4.13;;
84231;SDS011;74368;48.022;13.830;2024-02-04T07:21:34;7.32;;;4.15;;
84231;SDS011;74368;48.022;13.830;2024-02-04T07:24:00;8.10;;;4.65;;
84231;SDS011;74368;48.022;13.830;2024-02-04T07:26:25;7.38;;;4.47;;
84231;SDS011;74368;48.022;13.830;2024-02-04T07:28:50;7.40;;;4.97;;
84231;SDS011;74368;48.022;13.830;2024-02-04T07:31:15;7.85;;;5.07;;
84231;SDS011;74368;48.022;13.830;2024-02-04T07:33:41;8.95;;;4.70;;
84231;SDS011;74368;48.022;13.830;2024-02-04T07:36:06;8.15;;;4.40;;
84231;SDS011;74368;48.022;13.830;2024-02-04T07:38:32;9.88;;;5.18;;
84231;SDS011;74368;48.022;13.830;2024-02-04T07:40:58;7.20;;;4.70;;
84231;SDS011;74368;48.022;13.830;2024-02-04T07:43:24;9.68;;;4.82;;
84231;SDS011;74368;48.022;13.830;2024-02-04T07:45:50;9.85;;;5.65;;
84231;SDS011;74368;48.022;13.830;2024-02-04T07:48:15;8.93;;;5.70;;
84231;SDS011;74368;48.022;13.830;2024-02-04T07:50:42;7.90;;;4.45;;
84231;SDS011;74368;48.022;13.830;2024-02-04T07:53:07;8.23;;;5.10;;
84231;SDS011;74368;48.022;13.830;2024-02-04T07:55:33;7.82;;;4.63;;
84231;SDS011;74368;48.022;13.830;2024-02-04T07:57:58;7.47;;;4.53;;
84231;SDS011;74368;48.022;13.830;2024-02-04T08:00:24;9.02;;;4.60;;
84231;SDS011;74368;48.022;13.830;2024-02-04T08:02:49;7.63;;;4.60;;
84231;SDS011;74368;48.022;13.830;2024-02-04T08:05:14;7.28;;;4.68;;
84231;SDS011;74368;48.022;13.830;2024-02-04T08:07:39;10.23;;;5.20;;
84231;SDS011;74368;48.022;13.830;2024-02-04T08:10:06;9.63;;;5.68;;
84231;SDS011;74368;48.022;13.830;2024-02-04T08:12:32;10.90;;;5.30;;
84231;SDS011;74368;48.022;13.830;2024-02-04T08:14:57;9.35;;;5.15;;
84231;SDS011;74368;48.022;13.830;2024-02-04T08:17:22;7.30;;;4.35;;
84231;SDS011;74368;48.022;13.830;2024-02-04T08:19:48;8.40;;;4.47;;
84231;SDS011;74368;48.022;13.830;2024-02-04T08:22:13;6.95;;;4.22;;
84231;SDS011;74368;48.022;13.830;2024-02-04T08:24:39;7.88;;;4.50;;
84231;SDS011;74368;48.022;13.830;2024-02-04T08:27:04;7.55;;;4.28;;
84231;SDS011;74368;48.022;13.830;2024-02-04T08:29:30;6.40;;;4.32;;
84231;SDS011;74368;48.022;13.830;2024-02-04T08:31:55;9.13;;;4.35;;
84231;SDS011;74368;48.022;13.830;2024-02-04T08:34:21;7.32;;;4.38;;
84231;SDS011;74368;48.022;13.830;2024-02-04T08:36:48;6.65;;;4.07;;
84231;SDS011;74368;48.022;13.830;2024-02-04T08:39:14;9.15;;;4.00;;
84231;SDS011;74368;48.022;13.830;2024-02-04T08:41:40;7.18;;;4.13;;
84231;SDS011;74368;48.022;13.830;2024-02-04T08:44:05;6.03;;;3.65;;
84231;SDS011;74368;48.022;13.830;2024-02-04T08:46:30;7.75;;;4.00;;
84231;SDS011;74368;48.022;13.830;2024-02-04T08:48:56;6.50;;;3.63;;
84231;SDS011;74368;48.022;13.830;2024-02-04T08:51:21;8.10;;;3.63;;
84231;SDS011;74368;48.022;13.830;2024-02-04T08:53:46;7.03;;;3.63;;
84231;SDS011;74368;48.022;13.830;2024-02-04T08:56:11;8.23;;;4.28;;
84231;SDS011;74368;48.022;13.830;2024-02-04T08:58:37;7.43;;;3.92;;
84231;SDS011;74368;48.022;13.830;2024-02-04T09:01:05;10.18;;;5.57;;
84231;SDS011;74368;48.022;13.830;2024-02-04T09:03:31;9.65;;;5.07;;
84231;SDS011;74368;48.022;13.830;2024-02-04T09:05:57;9.57;;;4.97;;
84231;SDS011;74368;48.022;13.830;2024-02-04T09:08:22;10.13;;;5.63;;
84231;SDS011;74368;48.022;13.830;2024-02-04T09:10:47;7.15;;;5.05;;
84231;SDS011;74368;48.022;13.830;2024-02-04T09:13:13;7.82;;;4.90;;
84231;SDS011;74368;48.022;13.830;2024-02-04T09:15:38;7.75;;;4.57;;
84231;SDS011;74368;48.022;13.830;2024-02-04T09:18:04;9.70;;;5.40;;
84231;SDS011;74368;48.022;13.830;2024-02-04T09:20:29;5.93;;;4.15;;
84231;SDS011;74368;48.022;13.830;2024-02-04T09:22:54;7.55;;;4.80;;
84231;SDS011;74368;48.022;13.830;2024-02-04T09:25:20;7.47;;;4.57;;
84231;SDS011;74368;48.022;13.830;2024-02-04T09:27:45;9.73;;;4.97;;
84231;SDS011;74368;48.022;13.830;2024-02-04T09:30:10;7.85;;;4.65;;
84231;SDS011;74368;48.022;13.830;2024-02-04T09:32:36;9.70;;;4.78;;
84231;SDS011;74368;48.022;13.830;2024-02-04T09:35:02;7.50;;;4.75;;
84231;SDS011;74368;48.022;13.830;2024-02-04T09:37:27;7.82;;;4.25;;
84231;SDS011;74368;48.022;13.830;2024-02-04T09:39:52;9.10;;;4.40;;
84231;SDS011;74368;48.022;13.830;2024-02-04T09:42:21;10.80;;;5.03;;
84231;SDS011;74368;48.022;13.830;2024-02-04T09:44:47;9.82;;;5.55;;
84231;SDS011;74368;48.022;13.830;2024-02-04T09:47:14;11.63;;;6.82;;
84231;SDS011;74368;48.022;13.830;2024-02-04T09:49:39;10.63;;;5.00;;
84231;SDS011;74368;48.022;13.830;2024-02-04T09:52:09;9.43;;;5.05;;
84231;SDS011;74368;48.022;13.830;2024-02-04T09:54:39;7.78;;;4.53;;
84231;SDS011;74368;48.022;13.830;2024-02-04T09:57:13;8.70;;;4.80;;
84231;SDS011;74368;48.022;13.830;2024-02-04T09:59:39;9.70;;;4.57;;
84231;SDS011;74368;48.022;13.830;2024-02-04T10:02:05;7.07;;;4.85;;
84231;SDS011;74368;48.022;13.830;2024-02-04T10:04:32;9.18;;;4.32;;
84231;SDS011;74368;48.022;13.830;2024-02-04T10:06:57;6.82;;;4.00;;
84231;SDS011;74368;48.022;13.830;2024-02-04T10:09:22;6.82;;;4.15;;
84231;SDS011;74368;48.022;13.830;2024-02-04T10:11:48;10.00;;;4.55;;
84231;SDS011;74368;48.022;13.830;2024-02-04T10:14:16;7.85;;;4.65;;
84231;SDS011;74368;48.022;13.830;2024-02-04T10:16:43;7.20;;;4.05;;
84231;SDS011;74368;48.022;13.830;2024-02-04T10:19:09;9.05;;;3.80;;
84231;SDS011;74368;48.022;13.830;2024-02-04T10:21:34;8.05;;;3.97;;
84231;SDS011;74368;48.022;13.830;2024-02-04T10:23:59;5.80;;;3.40;;
84231;SDS011;74368;48.022;13.830;2024-02-04T10:26:28;9.30;;;3.63;;
84231;SDS011;74368;48.022;13.830;2024-02-04T10:28:57;8.23;;;4.18;;
84231;SDS011;74368;48.022;13.830;2024-02-04T10:31:23;8.50;;;4.97;;
84231;SDS011;74368;48.022;13.830;2024-02-04T10:33:49;13.20;;;4.63;;
84231;SDS011;74368;48.022;13.830;2024-02-04T10:36:14;10.05;;;4.72;;
84231;SDS011;74368;48.022;13.830;2024-02-04T10:38:40;8.02;;;4.22;;
84231;SDS011;74368;48.022;13.830;2024-02-04T10:41:05;4.75;;;3.40;;
84231;SDS011;74368;48.022;13.830;2024-02-04T10:43:32;8.30;;;3.67;;
84231;SDS011;74368;48.022;13.830;2024-02-04T10:46:20;8.68;;;4.22;;
84231;SDS011;74368;48.022;13.830;2024-02-04T10:48:52;11.95;;;6.75;;
84231;SDS011;74368;48.022;13.830;2024-02-04T10:51:22;20.80;;;9.63;;
84231;SDS011;74368;48.022;13.830;2024-02-04T10:53:50;9.98;;;4.78;;
84231;SDS011;74368;48.022;13.830;2024-02-04T10:56:19;9.80;;;4.35;;
84231;SDS011;74368;48.022;13.830;2024-02-04T10:58:46;19.77;;;8.18;;
84231;SDS011;74368;48.022;13.830;2024-02-04T11:01:12;6.55;;;4.25;;
84231;SDS011;74368;48.022;13.830;2024-02-04T11:03:38;8.98;;;4.32;;
84231;SDS011;74368;48.022;13.830;2024-02-04T11:06:04;6.63;;;4.15;;
84231;SDS011;74368;48.022;13.830;2024-02-04T11:08:30;6.60;;;3.97;;
84231;SDS011;74368;48.022;13.830;2024-02-04T11:10:55;6.82;;;4.55;;
84231;SDS011;74368;48.022;13.830;2024-02-04T11:13:20;8.40;;;4.60;;
84231;SDS011;74368;48.022;13.830;2024-02-04T11:15:48;9.63;;;5.20;;
84231;SDS011;74368;48.022;13.830;2024-02-04T11:18:22;9.25;;;4.68;;
84231;SDS011;74368;48.022;13.830;2024-02-04T11:24:00;9.65;;;4.22;;
84231;SDS011;74368;48.022;13.830;2024-02-04T11:26:37;7.22;;;3.25;;
84231;SDS011;74368;48.022;13.830;2024-02-04T11:29:06;6.55;;;3.80;;
84231;SDS011;74368;48.022;13.830;2024-02-04T11:31:32;4.93;;;3.40;;
84231;SDS011;74368;48.022;13.830;2024-02-04T11:33:57;11.60;;;4.82;;
84231;SDS011;74368;48.022;13.830;2024-02-04T11:36:25;11.02;;;4.78;;
84231;SDS011;74368;48.022;13.830;2024-02-04T11:38:51;8.73;;;4.30;;
84231;SDS011;74368;48.022;13.830;2024-02-04T11:41:23;4.70;;;3.17;;
84231;SDS011;74368;48.022;13.830;2024-02-04T11:43:53;7.80;;;3.38;;
84231;SDS011;74368;48.022;13.830;2024-02-04T11:46:20;9.10;;;3.80;;
84231;SDS011;74368;48.022;13.830;2024-02-04T11:48:51;5.78;;;3.70;;
84231;SDS011;74368;48.022;13.830;2024-02-04T11:51:21;6.70;;;5.07;;
84231;SDS011;74368;48.022;13.830;2024-02-04T11:53:47;6.30;;;3.78;;
84231;SDS011;74368;48.022;13.830;2024-02-04T11:56:12;6.07;;;3.55;;
84231;SDS011;74368;48.022;13.830;2024-02-04T11:58:38;7.05;;;3.30;;
84231;SDS011;74368;48.022;13.830;2024-02-04T12:01:05;7.55;;;3.65;;
84231;SDS011;74368;48.022;13.830;2024-02-04T12:03:35;9.25;;;3.20;;
84231;SDS011;74368;48.022;13.830;2024-02-04T12:06:01;5.18;;;2.90;;
84231;SDS011;74368;48.022;13.830;2024-02-04T12:08:29;10.60;;;3.83;;
84231;SDS011;74368;48.022;13.830;2024-02-04T12:10:57;6.95;;;3.65;;
84231;SDS011;74368;48.022;13.830;2024-02-04T12:13:24;6.25;;;3.92;;
84231;SDS011;74368;48.022;13.830;2024-02-04T12:15:49;7.20;;;3.10;;
84231;SDS011;74368;48.022;13.830;2024-02-04T12:18:15;7.57;;;3.17;;
84231;SDS011;74368;48.022;13.830;2024-02-04T12:20:45;6.18;;;3.13;;
84231;SDS011;74368;48.022;13.830;2024-02-04T12:23:12;7.57;;;4.68;;
84231;SDS011;74368;48.022;13.830;2024-02-04T12:25:38;9.48;;;3.72;;
84231;SDS011;74368;48.022;13.830;2024-02-04T12:28:03;6.13;;;2.83;;
84231;SDS011;74368;48.022;13.830;2024-02-04T12:30:29;7.43;;;3.33;;
84231;SDS011;74368;48.022;13.830;2024-02-04T12:32:59;7.15;;;3.50;;
84231;SDS011;74368;48.022;13.830;2024-02-04T12:35:25;7.63;;;3.50;;
84231;SDS011;74368;48.022;13.830;2024-02-04T12:37:53;10.02;;;4.10;;
84231;SDS011;74368;48.022;13.830;2024-02-04T12:40:26;12.50;;;5.00;;
84231;SDS011;74368;48.022;13.830;2024-02-04T12:42:53;9.23;;;3.65;;
84231;SDS011;74368;48.022;13.830;2024-02-04T12:45:20;9.88;;;3.33;;
84231;SDS011;74368;48.022;13.830;2024-02-04T12:47:52;7.75;;;3.42;;
84231;SDS011;74368;48.022;13.830;2024-02-04T12:50:19;10.07;;;3.40;;
84231;SDS011;74368;48.022;13.830;2024-02-04T12:52:45;8.60;;;3.60;;
84231;SDS011;74368;48.022;13.830;2024-02-04T12:55:24;7.50;;;3.53;;
84231;SDS011;74368;48.022;13.830;2024-02-04T12:58:14;4.60;;;3.10;;
84231;SDS011;74368;48.022;13.830;2024-02-04T13:00:43;9.27;;;3.90;;
84231;SDS011;74368;48.022;13.830;2024-02-04T13:03:08;9.70;;;3.63;;
84231;SDS011;74368;48.022;13.830;2024-02-04T13:05:34;9.05;;;3.50;;
84231;SDS011;74368;48.022;13.830;2024-02-04T13:08:03;9.90;;;3.38;;
84231;SDS011;74368;48.022;13.830;2024-02-04T13:10:31;5.63;;;2.90;;
84231;SDS011;74368;48.022;13.830;2024-02-04T13:13:05;10.25;;;5.03;;
84231;SDS011;74368;48.022;13.830;2024-02-04T13:15:33;6.13;;;2.88;;
84231;SDS011;74368;48.022;13.830;2024-02-04T13:18:01;7.95;;;3.00;;
84231;SDS011;74368;48.022;13.830;2024-02-04T13:20:27;4.95;;;2.92;;
84231;SDS011;74368;48.022;13.830;2024-02-04T13:22:52;10.43;;;3.05;;
84231;SDS011;74368;48.022;13.830;2024-02-04T13:25:19;8.43;;;4.15;;
84231;SDS011;74368;48.022;13.830;2024-02-04T13:27:45;6.53;;;3.55;;
84231;SDS011;74368;48.022;13.830;2024-02-04T13:30:11;11.55;;;5.25;;
84231;SDS011;74368;48.022;13.830;2024-02-04T13:32:40;8.98;;;4.13;;
84231;SDS011;74368;48.022;13.830;2024-02-04T13:35:06;9.50;;;4.18;;
84231;SDS011;74368;48.022;13.830;2024-02-04T13:37:38;7.82;;;3.90;;
84231;SDS011;74368;48.022;13.830;2024-02-04T13:40:04;6.15;;;3.10;;
84231;SDS011;74368;48.022;13.830;2024-02-04T13:42:31;6.47;;;3.00;;
84231;SDS011;74368;48.022;13.830;2024-02-04T13:44:58;6.65;;;3.25;;
84231;SDS011;74368;48.022;13.830;2024-02-04T13:47:24;6.18;;;3.55;;
84231;SDS011;74368;48.022;13.830;2024-02-04T13:49:49;4.70;;;2.65;;
84231;SDS011;74368;48.022;13.830;2024-02-04T13:52:15;7.43;;;2.90;;
84231;SDS011;74368;48.022;13.830;2024-02-04T13:54:40;5.15;;;2.95;;
84231;SDS011;74368;48.022;13.830;2024-02-04T13:57:05;5.13;;;3.00;;
84231;SDS011;74368;48.022;13.830;2024-02-04T13:59:31;5.32;;;2.70;;
84231;SDS011;74368;48.022;13.830;2024-02-04T14:01:56;5.82;;;3.20;;
84231;SDS011;74368;48.022;13.830;2024-02-04T14:04:21;10.07;;;3.33;;
84231;SDS011;74368;48.022;13.830;2024-02-04T14:06:47;4.18;;;2.60;;
84231;SDS011;74368;48.022;13.830;2024-02-04T14:09:12;8.55;;;3.17;;
84231;SDS011;74368;48.022;13.830;2024-02-04T14:11:38;5.85;;;2.70;;
84231;SDS011;74368;48.022;13.830;2024-02-04T14:14:03;5.43;;;2.55;;
84231;SDS011;74368;48.022;13.830;2024-02-04T14:16:29;4.78;;;2.70;;
84231;SDS011;74368;48.022;13.830;2024-02-04T14:18:54;5.82;;;2.95;;
84231;SDS011;74368;48.022;13.830;2024-02-04T14:21:20;6.18;;;3.15;;
84231;SDS011;74368;48.022;13.830;2024-02-04T14:23:45;6.65;;;2.75;;
84231;SDS011;74368;48.022;13.830;2024-02-04T14:26:17;6.03;;;2.63;;
84231;SDS011;74368;48.022;13.830;2024-02-04T14:28:43;4.85;;;2.78;;
84231;SDS011;74368;48.022;13.830;2024-02-04T14:31:08;5.95;;;3.20;;
84231;SDS011;74368;48.022;13.830;2024-02-04T14:33:33;9.68;;;3.42;;
84231;SDS011;74368;48.022;13.830;2024-02-04T14:35:59;7.43;;;2.70;;
84231;SDS011;74368;48.022;13.830;2024-02-04T14:38:25;5.28;;;2.50;;